Darstellungsparameter: Aktuell verwendete Einstellungen:
Skalierung der Graphiken ... ?
xyx+y,   Skalierungsfaktor:      Skalierung: Modus: x, Faktor: 1
Darstellungszeitraum ... ?
Vom - - bis: - -   Zeitraum: 20.12.2010 - 26.12.2010
Min/Max/Avg-Anzeige ... ?
Zeige MMA aktuell
Zeige MMA Monat
Zeige MMA alles
Zeige --A aktuell
Zeige --A Monat
Zeige --A alles
Keine MMA-Anzeige
MMA:
Keine MMA-Graphiken
MMA-Basis: 20.12.2010 - 26.12.2010
Quicknavigation für Darstellung... ?
Tage:      1T, 2T, 3T, 5T -1T -2T -3T -5T +1T +2T +3T +5T
Wochen: 1W, 2W, 3W -1W -2W -3W +1W +2W +3W
Monate: 1M, 3M, 6M -1M -3M -6M +1M +3M +6M
Jahre:    1J, 3J, 5J, 10J -1J -3J -5J -10J +1J +3J +5J +10J
Nutze für die Darstellung ... ?
Originaldaten oder Mittelwerte auf ...
Stundenbasis Tagesbasis Wochenbasis
Monatsbasis Jahresbasis      Datenbasis: Original-Daten
Darstellen als:
Statistik (Auto) Statistik J:M      Darstellung:
Zur Graphik,    zurück zur Übersicht aller Sensoren.
 
Tabellarische Datenbersicht: ?
 
Sensor: Nr:Datum:Temp:Abs-Feuchte:Windchill:Wind:
Aussen-T/F 1 20-12-2010 00:10:02 4.3 C 4.61 g/m*3 4.3 C 0 km/h
2 20-12-2010 00:22:01 4.2 C 4.64 g/m*3 4.2 C 0 km/h
3 20-12-2010 00:34:02 4 C 4.64 g/m*3 4 C 0 km/h
4 20-12-2010 00:46:01 4 C 4.64 g/m*3 4 C 0 km/h
5 20-12-2010 00:58:01 3.6 C 4.58 g/m*3 3.6 C 0 km/h
6 20-12-2010 01:10:02 2.9 C 4.67 g/m*3 2.9 C 0 km/h
7 20-12-2010 01:22:02 2.7 C 4.66 g/m*3 2.7 C 0 km/h
8 20-12-2010 01:34:01 1.3 C 4.29 g/m*3 1.3 C 0 km/h
9 20-12-2010 01:46:02 0.7 C 4.27 g/m*3 0.7 C 0 km/h
10 20-12-2010 01:58:02 0.8 C 4.25 g/m*3 0.8 C 0 km/h
11 20-12-2010 02:10:01 0.7 C 3.97 g/m*3 0.7 C 0 km/h
12 20-12-2010 02:22:02 0.6 C 3.64 g/m*3 0.6 C 0 km/h
13 20-12-2010 02:34:01 0.4 C 3.64 g/m*3 0.4 C 0 km/h
14 20-12-2010 02:46:02 0.3 C 3.61 g/m*3 0.3 C 0 km/h
15 20-12-2010 02:58:02 0.1 C 3.66 g/m*3 0.1 C 0 km/h
16 20-12-2010 03:10:01 0 C 3.73 g/m*3 0 C 0 km/h
17 20-12-2010 03:22:01 -0.1 C 3.66 g/m*3 -0.1 C 0 km/h
18 20-12-2010 03:34:02 0 C 3.59 g/m*3 0 C 0 km/h
19 20-12-2010 03:46:02 -0.3 C 3.56 g/m*3 -0.3 C 0 km/h
20 20-12-2010 03:58:02 0 C 3.63 g/m*3 0 C 0 km/h
21 20-12-2010 04:10:01 -0.2 C 3.58 g/m*3 -0.2 C 0 km/h
22 20-12-2010 04:22:02 -0.6 C 3.63 g/m*3 -0.6 C 0 km/h
23 20-12-2010 04:34:01 -0.5 C 3.74 g/m*3 -0.5 C 0 km/h
24 20-12-2010 04:46:02 -0.4 C 3.72 g/m*3 -0.4 C 0 km/h
25 20-12-2010 04:58:02 -0.5 C 3.65 g/m*3 -0.5 C 0 km/h
Sensor: Nr:Datum:Temp:Abs-Feuchte:Windchill:Wind:
Aussen-T/F 26 20-12-2010 05:10:01 -0.7 C 3.6 g/m*3 -0.7 C 0 km/h
27 20-12-2010 05:22:01 -1 C 3.57 g/m*3 -1 C 0 km/h
28 20-12-2010 05:34:02 -1.1 C 3.55 g/m*3 -1.1 C 0 km/h
29 20-12-2010 05:46:01 -1.1 C 3.55 g/m*3 -1.1 C 0 km/h
30 20-12-2010 05:58:01 -1.2 C 3.52 g/m*3 -1.2 C 0 km/h
31 20-12-2010 06:10:02 -1.3 C 3.54 g/m*3 -1.3 C 0 km/h
32 20-12-2010 06:22:01 -1.3 C 3.54 g/m*3 -1.3 C 0 km/h
33 20-12-2010 06:34:02 -1.5 C 3.49 g/m*3 -1.5 C 0 km/h
34 20-12-2010 06:46:01 -1.9 C 3.4 g/m*3 -1.9 C 0 km/h
35 20-12-2010 06:58:01 -2.3 C 3.34 g/m*3 -2.3 C 0 km/h
36 20-12-2010 07:10:02 -2.5 C 3.34 g/m*3 -2.5 C 0 km/h
37 20-12-2010 07:22:01 -2.7 C 3.33 g/m*3 -2.7 C 0 km/h
38 20-12-2010 07:34:01 -2.4 C 3.44 g/m*3 -2.4 C 0 km/h
39 20-12-2010 07:46:01 -2.7 C 3.37 g/m*3 -2.7 C 0 km/h
40 20-12-2010 07:58:01 -2.7 C 3.41 g/m*3 -2.7 C 0 km/h
41 20-12-2010 08:10:02 -2.5 C 3.5 g/m*3 -2.5 C 0 km/h
42 20-12-2010 08:22:01 -2.5 C 3.5 g/m*3 -2.5 C 0 km/h
43 20-12-2010 08:34:01 -2.5 C 3.54 g/m*3 -2.5 C 0 km/h
44 20-12-2010 08:46:01 -2.4 C 3.57 g/m*3 -2.4 C 0 km/h
45 20-12-2010 08:58:01 -2.2 C 3.62 g/m*3 -2.2 C 0 km/h
46 20-12-2010 09:10:02 -2 C 3.67 g/m*3 -2 C 0 km/h
47 20-12-2010 09:22:01 -1.8 C 3.72 g/m*3 -1.8 C 0 km/h
48 20-12-2010 09:34:01 -1.9 C 3.61 g/m*3 -1.9 C 0 km/h
49 20-12-2010 09:46:01 -1.7 C 3.53 g/m*3 -1.7 C 0 km/h
50 20-12-2010 09:58:01 -1.6 C 3.42 g/m*3 -1.6 C 0 km/h
Sensor: Nr:Datum:Temp:Abs-Feuchte:Windchill:Wind:
Aussen-T/F 51 20-12-2010 10:10:01 -1.6 C 3.34 g/m*3 -1.6 C 0 km/h
52 20-12-2010 10:22:02 -1.3 C 3.36 g/m*3 -1.3 C 0 km/h
53 20-12-2010 10:34:01 -1.1 C 3.37 g/m*3 -1.1 C 0 km/h
54 20-12-2010 10:46:02 -1.1 C 3.28 g/m*3 -1.1 C 0 km/h
55 20-12-2010 10:58:02 -1 C 3.3 g/m*3 -1 C 0 km/h
56 20-12-2010 11:10:01 -0.9 C 3.28 g/m*3 -0.9 C 0 km/h
57 20-12-2010 11:22:02 -0.9 C 3.28 g/m*3 -0.9 C 0 km/h
58 20-12-2010 11:34:01 -0.8 C 3.25 g/m*3 -0.8 C 0 km/h
59 20-12-2010 11:46:02 -0.7 C 3.32 g/m*3 -0.7 C 0 km/h
60 20-12-2010 11:58:02 -0.7 C 3.28 g/m*3 -0.7 C 0 km/h
61 20-12-2010 12:10:01 -1 C 3.21 g/m*3 -1 C 0 km/h
62 20-12-2010 12:22:01 -1.1 C 3.28 g/m*3 -1.1 C 0 km/h
63 20-12-2010 12:34:02 -1.1 C 3.28 g/m*3 -1.1 C 0 km/h
64 20-12-2010 12:46:01 -1.1 C 3.28 g/m*3 -1.1 C 0 km/h
65 20-12-2010 12:58:01 -1 C 3.3 g/m*3 -1 C 0 km/h
66 20-12-2010 13:10:02 -0.9 C 3.28 g/m*3 -0.9 C 0 km/h
67 20-12-2010 13:22:01 -1 C 3.25 g/m*3 -1 C 0 km/h
68 20-12-2010 13:34:02 -0.9 C 3.28 g/m*3 -0.9 C 0 km/h
69 20-12-2010 13:46:01 -0.8 C 3.35 g/m*3 -0.8 C 0 km/h
70 20-12-2010 13:58:01 -1 C 3.25 g/m*3 -1 C 0 km/h
71 20-12-2010 14:10:02 -1 C 3.25 g/m*3 -1 C 0 km/h
72 20-12-2010 14:22:01 -0.9 C 3.28 g/m*3 -0.9 C 0 km/h
73 20-12-2010 14:34:01 -1 C 3.25 g/m*3 -1 C 0 km/h
74 20-12-2010 14:46:01 -1 C 3.25 g/m*3 -1 C 0 km/h
75 20-12-2010 14:58:01 -1 C 3.25 g/m*3 -1 C 0 km/h
Sensor: Nr:Datum:Temp:Abs-Feuchte:Windchill:Wind:
Aussen-T/F 76 20-12-2010 15:10:01 -1.1 C 3.23 g/m*3 -1.1 C 0 km/h
77 20-12-2010 15:22:01 -1 C 3.25 g/m*3 -1 C 0 km/h
78 20-12-2010 15:34:01 -1 C 3.25 g/m*3 -1 C 0 km/h
79 20-12-2010 15:46:01 -1 C 3.3 g/m*3 -1 C 0 km/h
80 20-12-2010 15:58:01 -1.3 C 3.28 g/m*3 -1.3 C 0 km/h
81 20-12-2010 16:10:01 -1.6 C 3.25 g/m*3 -1.6 C 0 km/h
82 20-12-2010 16:22:02 -2.9 C 2.93 g/m*3 -2.9 C 0 km/h
83 20-12-2010 16:34:01 -3.3 C 3 g/m*3 -3.3 C 0 km/h
84 20-12-2010 16:46:02 -3.5 C 3.03 g/m*3 -3.5 C 0 km/h
85 20-12-2010 16:58:02 -3.9 C 3.02 g/m*3 -3.9 C 0 km/h
86 20-12-2010 17:10:01 -4.2 C 2.99 g/m*3 -4.2 C 0 km/h
87 20-12-2010 17:22:01 -3.8 C 3.12 g/m*3 -3.8 C 0 km/h
88 20-12-2010 17:34:01 -3.4 C 3.28 g/m*3 -3.4 C 0 km/h
89 20-12-2010 17:46:01 -3.2 C 3.33 g/m*3 -3.2 C 0 km/h
90 20-12-2010 17:58:02 -3 C 3.42 g/m*3 -3 C 0 km/h
91 20-12-2010 18:10:01 -3 C 3.42 g/m*3 -3 C 0 km/h
92 20-12-2010 18:22:01 -3.1 C 3.39 g/m*3 -3.1 C 0 km/h
93 20-12-2010 18:34:02 -3.1 C 3.39 g/m*3 -3.1 C 0 km/h
94 20-12-2010 18:46:01 -3.1 C 3.39 g/m*3 -3.1 C 0 km/h
95 20-12-2010 18:58:01 -2.9 C 3.48 g/m*3 -2.9 C 0 km/h
96 20-12-2010 19:10:02 -2.9 C 3.48 g/m*3 -2.9 C 0 km/h
97 20-12-2010 19:22:01 -2.9 C 3.48 g/m*3 -2.9 C 0 km/h
98 20-12-2010 19:34:01 -3 C 3.46 g/m*3 -3 C 0 km/h
99 20-12-2010 19:46:01 -3 C 3.46 g/m*3 -3 C 0 km/h
100 20-12-2010 19:58:01 -3.2 C 3.37 g/m*3 -3.2 C 0 km/h
Sensor: Nr:Datum:Temp:Abs-Feuchte:Windchill:Wind:
Aussen-T/F 101 20-12-2010 20:10:02 -3.1 C 3.43 g/m*3 -3.1 C 0 km/h
102 20-12-2010 20:22:01 -2.8 C 3.51 g/m*3 -2.8 C 0 km/h
103 20-12-2010 20:34:01 -2.9 C 3.48 g/m*3 -2.9 C 0 km/h
104 20-12-2010 20:46:01 -2.9 C 3.48 g/m*3 -2.9 C 0 km/h
105 20-12-2010 20:58:01 -2.9 C 3.48 g/m*3 -2.9 C 0 km/h
106 20-12-2010 21:10:01 -3.2 C 3.37 g/m*3 -3.2 C 0 km/h
107 20-12-2010 21:23:04 -3.3 C 3.35 g/m*3 -3.3 C 0 km/h
108 20-12-2010 21:35:04 -3.6 C 3.27 g/m*3 -3.6 C 0 km/h
109 20-12-2010 21:47:05 -3.8 C 3.23 g/m*3 -3.8 C 0 km/h
110 20-12-2010 21:59:05 -4.3 C 3.08 g/m*3 -4.3 C 0 km/h
111 20-12-2010 22:11:05 -4.5 C 3.04 g/m*3 -4.5 C 0 km/h
112 20-12-2010 22:23:05 -4.5 C 3.04 g/m*3 -4.5 C 0 km/h
113 20-12-2010 22:35:05 -4.4 C 3.09 g/m*3 -4.4 C 0 km/h
114 20-12-2010 22:47:05 -4.2 C 3.14 g/m*3 -4.2 C 0 km/h
115 20-12-2010 22:59:05 -3.9 C 3.24 g/m*3 -3.9 C 0 km/h
116 20-12-2010 23:11:05 -3.6 C 3.31 g/m*3 -3.6 C 0 km/h
117 20-12-2010 23:23:05 -3.4 C 3.4 g/m*3 -3.4 C 0 km/h
118 20-12-2010 23:35:05 -3.5 C 3.34 g/m*3 -3.5 C 0 km/h
119 20-12-2010 23:47:05 -3.4 C 3.4 g/m*3 -3.4 C 0 km/h
120 20-12-2010 23:59:05 -3.4 C 3.4 g/m*3 -3.4 C 0 km/h
121 21-12-2010 00:11:05 -3.7 C 3.29 g/m*3 -3.7 C 0 km/h
122 21-12-2010 00:23:05 -3.8 C 3.27 g/m*3 -3.8 C 0 km/h
123 21-12-2010 00:35:05 -3.7 C 3.33 g/m*3 -3.7 C 0 km/h
124 21-12-2010 00:47:05 -3.6 C 3.35 g/m*3 -3.6 C 0 km/h
125 21-12-2010 00:59:05 -3.3 C 3.42 g/m*3 -3.3 C 0 km/h
Sensor: Nr:Datum:Temp:Abs-Feuchte:Windchill:Wind:
Aussen-T/F 126 21-12-2010 01:11:05 -3.1 C 3.47 g/m*3 -3.1 C 0 km/h
127 21-12-2010 01:23:05 -3 C 3.5 g/m*3 -3 C 0 km/h
128 21-12-2010 01:35:05 -2.8 C 3.55 g/m*3 -2.8 C 0 km/h
129 21-12-2010 01:47:05 -2.8 C 3.55 g/m*3 -2.8 C 0 km/h
130 21-12-2010 01:59:06 -2.7 C 3.57 g/m*3 -2.7 C 0 km/h
131 21-12-2010 02:11:06 -2.7 C 3.57 g/m*3 -2.7 C 0 km/h
132 21-12-2010 02:23:06 -2.5 C 3.62 g/m*3 -2.5 C 0 km/h
133 21-12-2010 02:35:06 -2.7 C 3.57 g/m*3 -2.7 C 0 km/h
134 21-12-2010 02:47:06 -2.6 C 3.6 g/m*3 -2.6 C 0 km/h
135 21-12-2010 02:59:06 -2.5 C 3.62 g/m*3 -2.5 C 0 km/h
136 21-12-2010 03:11:06 -2.6 C 3.56 g/m*3 -2.6 C 0 km/h
137 21-12-2010 03:23:06 -2.6 C 3.56 g/m*3 -2.6 C 0 km/h
138 21-12-2010 03:35:06 -2.6 C 3.56 g/m*3 -2.6 C 0 km/h
139 21-12-2010 03:47:06 -2.5 C 3.58 g/m*3 -2.5 C 0 km/h
140 21-12-2010 03:59:06 -2.4 C 3.61 g/m*3 -2.4 C 0 km/h
141 21-12-2010 04:11:06 -2.3 C 3.63 g/m*3 -2.3 C 0 km/h
142 21-12-2010 04:23:06 -2.2 C 3.66 g/m*3 -2.2 C 0 km/h
143 21-12-2010 04:35:06 -2.1 C 3.68 g/m*3 -2.1 C 0 km/h
144 21-12-2010 04:47:06 -2.1 C 3.68 g/m*3 -2.1 C 0 km/h
145 21-12-2010 04:59:06 -2 C 3.71 g/m*3 -2 C 0 km/h
146 21-12-2010 05:11:06 -2 C 3.71 g/m*3 -2 C 0 km/h
147 21-12-2010 05:23:06 -1.9 C 3.74 g/m*3 -1.9 C 0 km/h
148 21-12-2010 05:35:06 -1.9 C 3.74 g/m*3 -1.9 C 0 km/h
149 21-12-2010 05:47:06 -1.8 C 3.8 g/m*3 -1.8 C 0 km/h
150 21-12-2010 05:59:07 -1.8 C 3.8 g/m*3 -1.8 C 0 km/h
Sensor: Nr:Datum:Temp:Abs-Feuchte:Windchill:Wind:
Aussen-T/F 151 21-12-2010 06:11:07 -1.8 C 3.8 g/m*3 -1.8 C 0 km/h
152 21-12-2010 06:23:07 -1.8 C 3.8 g/m*3 -1.8 C 0 km/h
153 21-12-2010 06:35:07 -1.8 C 3.8 g/m*3 -1.8 C 0 km/h
154 21-12-2010 06:47:07 -1.8 C 3.8 g/m*3 -1.8 C 0 km/h
155 21-12-2010 06:59:07 -1.7 C 3.83 g/m*3 -1.7 C 0 km/h
156 21-12-2010 07:11:07 -1.7 C 3.83 g/m*3 -1.7 C 0 km/h
157 21-12-2010 07:23:07 -1.4 C 3.91 g/m*3 -1.4 C 0 km/h
158 21-12-2010 07:35:05 -1.8 C 3.8 g/m*3 -1.8 C 0 km/h
159 21-12-2010 07:47:02 -1.8 C 3.8 g/m*3 -1.8 C 0 km/h
160 21-12-2010 07:59:02 -1.8 C 3.8 g/m*3 -1.8 C 0 km/h
161 21-12-2010 08:11:02 -1.7 C 3.83 g/m*3 -1.7 C 0 km/h
162 21-12-2010 08:23:01 -1.6 C 3.86 g/m*3 -1.6 C 0 km/h
163 21-12-2010 08:35:02 -1.6 C 3.86 g/m*3 -1.6 C 0 km/h
164 21-12-2010 08:47:02 -1.7 C 3.83 g/m*3 -1.7 C 0 km/h
165 21-12-2010 08:59:02 -1.6 C 3.86 g/m*3 -1.6 C 0 km/h
166 21-12-2010 09:11:02 -1.4 C 3.91 g/m*3 -1.4 C 0 km/h
167 21-12-2010 09:23:02 -1.3 C 3.94 g/m*3 -1.3 C 0 km/h
168 21-12-2010 09:35:02 -1.2 C 3.92 g/m*3 -1.2 C 0 km/h
169 21-12-2010 09:47:02 -1.1 C 3.91 g/m*3 -1.1 C 0 km/h
170 21-12-2010 09:59:02 -1.2 C 3.88 g/m*3 -1.2 C 0 km/h
171 21-12-2010 10:11:02 -0.7 C 3.97 g/m*3 -0.7 C 0 km/h
172 21-12-2010 10:23:02 -0.8 C 3.9 g/m*3 -0.8 C 0 km/h
173 21-12-2010 10:35:02 -0.9 C 3.82 g/m*3 -0.9 C 0 km/h
174 21-12-2010 10:47:02 -0.3 C 3.99 g/m*3 -0.3 C 0 km/h
175 21-12-2010 10:59:02 -0.3 C 3.89 g/m*3 -0.3 C 0 km/h
Sensor: Nr:Datum:Temp:Abs-Feuchte:Windchill:Wind:
Aussen-T/F 176 21-12-2010 11:11:02 0.1 C 3.95 g/m*3 0.1 C 0 km/h
177 21-12-2010 11:23:02 0.4 C 4.03 g/m*3 0.4 C 0 km/h
178 21-12-2010 11:35:01 0.6 C 3.99 g/m*3 0.6 C 0 km/h
179 21-12-2010 11:47:02 0.8 C 4.04 g/m*3 0.8 C 0 km/h
180 21-12-2010 11:59:02 0.6 C 3.89 g/m*3 0.6 C 0 km/h
181 21-12-2010 12:11:01 0.9 C 3.92 g/m*3 0.9 C 0 km/h
182 21-12-2010 12:23:02 1.2 C 3.95 g/m*3 1.2 C 0 km/h
183 21-12-2010 12:35:02 1.3 C 4.03 g/m*3 1.3 C 0 km/h
184 21-12-2010 12:47:02 1.4 C 4.05 g/m*3 1.4 C 0 km/h
185 21-12-2010 12:59:02 0.9 C 3.92 g/m*3 0.9 C 0 km/h
186 21-12-2010 13:11:02 1.3 C 4.08 g/m*3 1.3 C 0 km/h
187 21-12-2010 13:23:02 1.4 C 4.11 g/m*3 1.4 C 0 km/h
188 21-12-2010 13:35:02 1.5 C 4.14 g/m*3 1.5 C 0 km/h
189 21-12-2010 13:47:01 1.5 C 4.14 g/m*3 1.5 C 0 km/h
190 21-12-2010 13:59:01 1.5 C 4.14 g/m*3 1.5 C 0 km/h
191 21-12-2010 14:11:02 1.4 C 4.11 g/m*3 1.4 C 0 km/h
192 21-12-2010 14:23:01 1.2 C 4.05 g/m*3 1.2 C 0 km/h
193 21-12-2010 14:35:01 1.2 C 4.05 g/m*3 1.2 C 0 km/h
194 21-12-2010 14:47:01 1.2 C 4.05 g/m*3 1.2 C 0 km/h
195 21-12-2010 14:59:01 1.2 C 4.05 g/m*3 1.2 C 0 km/h
196 21-12-2010 15:11:02 1.2 C 4.05 g/m*3 1.2 C 0 km/h
197 21-12-2010 15:23:01 1.3 C 4.19 g/m*3 1.3 C 0 km/h
198 21-12-2010 15:35:01 1.2 C 4.21 g/m*3 1.2 C 0 km/h
199 21-12-2010 15:47:01 1.1 C 4.23 g/m*3 1.1 C 0 km/h
200 21-12-2010 15:59:01 1.1 C 4.23 g/m*3 1.1 C 0 km/h
Sensor: Nr:Datum:Temp:Abs-Feuchte:Windchill:Wind:
Aussen-T/F 201 21-12-2010 16:11:02 1.1 C 4.23 g/m*3 1.1 C 0 km/h
202 21-12-2010 16:23:02 0.6 C 4.19 g/m*3 0.6 C 0 km/h
203 21-12-2010 16:35:01 0.6 C 4.19 g/m*3 0.6 C 0 km/h
204 21-12-2010 16:47:02 0.3 C 4.16 g/m*3 0.3 C 0 km/h
205 21-12-2010 16:59:02 0.3 C 4.2 g/m*3 0.3 C 0 km/h
206 21-12-2010 17:11:01 0.3 C 4.25 g/m*3 0.3 C 0 km/h
207 21-12-2010 17:23:02 0.3 C 4.3 g/m*3 0.3 C 0 km/h
208 21-12-2010 17:35:01 0.1 C 4.29 g/m*3 0.1 C 0 km/h
209 21-12-2010 17:47:02 0.1 C 4.29 g/m*3 0.1 C 0 km/h
210 21-12-2010 17:59:02 0 C 4.26 g/m*3 0 C 0 km/h
211 21-12-2010 18:11:02 0.1 C 4.34 g/m*3 0.1 C 0 km/h
212 21-12-2010 18:23:02 0.2 C 4.37 g/m*3 0.2 C 0 km/h
213 21-12-2010 18:35:02 0.2 C 4.37 g/m*3 0.2 C 0 km/h
214 21-12-2010 18:47:02 0.2 C 4.37 g/m*3 0.2 C 0 km/h
215 21-12-2010 18:59:02 0.2 C 4.42 g/m*3 0.2 C 0 km/h
216 21-12-2010 19:11:02 0.2 C 4.42 g/m*3 0.2 C 0 km/h
217 21-12-2010 19:23:01 0.1 C 4.39 g/m*3 0.1 C 0 km/h
218 21-12-2010 19:35:02 0.1 C 4.39 g/m*3 0.1 C 0 km/h
219 21-12-2010 19:47:02 0.1 C 4.39 g/m*3 0.1 C 0 km/h
220 21-12-2010 19:59:02 0.1 C 4.39 g/m*3 0.1 C 0 km/h
221 21-12-2010 20:11:02 0.1 C 4.39 g/m*3 0.1 C 0 km/h
222 21-12-2010 20:23:01 0.1 C 4.39 g/m*3 0.1 C 0 km/h
223 21-12-2010 20:35:02 0.1 C 4.39 g/m*3 0.1 C 0 km/h
224 21-12-2010 20:47:02 0.1 C 4.39 g/m*3 0.1 C 0 km/h
225 21-12-2010 20:59:02 0.2 C 4.42 g/m*3 0.2 C 0 km/h
Sensor: Nr:Datum:Temp:Abs-Feuchte:Windchill:Wind:
Aussen-T/F 226 21-12-2010 21:11:02 0.1 C 4.44 g/m*3 0.1 C 0 km/h
227 21-12-2010 21:23:01 0.1 C 4.44 g/m*3 0.1 C 0 km/h
228 21-12-2010 21:35:02 0.2 C 4.47 g/m*3 0.2 C 0 km/h
229 21-12-2010 21:47:01 0.1 C 4.44 g/m*3 0.1 C 0 km/h
230 21-12-2010 21:59:01 0.1 C 4.44 g/m*3 0.1 C 0 km/h
231 21-12-2010 22:11:02 0.1 C 4.44 g/m*3 0.1 C 0 km/h
232 21-12-2010 22:24:04 0.1 C 4.44 g/m*3 0.1 C 0 km/h
233 21-12-2010 22:36:04 0.2 C 4.47 g/m*3 0.2 C 0 km/h
234 21-12-2010 22:48:04 0.2 C 4.47 g/m*3 0.2 C 0 km/h
235 21-12-2010 23:00:04 0.2 C 4.47 g/m*3 0.2 C 0 km/h
236 21-12-2010 23:12:04 0.1 C 4.44 g/m*3 0.1 C 0 km/h
237 21-12-2010 23:24:04 0.1 C 4.44 g/m*3 0.1 C 0 km/h
238 21-12-2010 23:36:04 0.1 C 4.44 g/m*3 0.1 C 0 km/h
239 21-12-2010 23:48:04 0.1 C 4.44 g/m*3 0.1 C 0 km/h
240 22-12-2010 00:00:04 0.1 C 4.44 g/m*3 0.1 C 0 km/h
241 22-12-2010 00:12:04 0.1 C 4.49 g/m*3 0.1 C 0 km/h
242 22-12-2010 00:24:04 0.1 C 4.49 g/m*3 0.1 C 0 km/h
243 22-12-2010 00:36:04 0.1 C 4.49 g/m*3 0.1 C 0 km/h
244 22-12-2010 00:48:04 0.1 C 4.49 g/m*3 0.1 C 0 km/h
245 22-12-2010 01:00:04 0.1 C 4.49 g/m*3 0.1 C 0 km/h
246 22-12-2010 01:12:04 0.1 C 4.49 g/m*3 0.1 C 0 km/h
247 22-12-2010 01:24:04 0.2 C 4.52 g/m*3 0.2 C 0 km/h
248 22-12-2010 01:36:04 0.2 C 4.52 g/m*3 0.2 C 0 km/h
249 22-12-2010 01:48:04 0.2 C 4.52 g/m*3 0.2 C 0 km/h
250 22-12-2010 02:00:04 0.2 C 4.52 g/m*3 0.2 C 0 km/h
Sensor: Nr:Datum:Temp:Abs-Feuchte:Windchill:Wind:
Aussen-T/F 251 22-12-2010 02:12:05 0.2 C 4.52 g/m*3 0.2 C 0 km/h
252 22-12-2010 02:24:05 0.2 C 4.52 g/m*3 0.2 C 0 km/h
253 22-12-2010 02:36:05 0.2 C 4.52 g/m*3 0.2 C 0 km/h
254 22-12-2010 02:48:05 0.2 C 4.52 g/m*3 0.2 C 0 km/h
255 22-12-2010 03:00:05 0.2 C 4.52 g/m*3 0.2 C 0 km/h
256 22-12-2010 03:12:05 0.2 C 4.52 g/m*3 0.2 C 0 km/h
257 22-12-2010 03:24:05 0.1 C 4.49 g/m*3 0.1 C 0 km/h
258 22-12-2010 03:36:05 0.1 C 4.49 g/m*3 0.1 C 0 km/h
259 22-12-2010 03:48:05 0.2 C 4.52 g/m*3 0.2 C 0 km/h
260 22-12-2010 04:00:05 0.2 C 4.52 g/m*3 0.2 C 0 km/h
261 22-12-2010 04:12:05 0.3 C 4.55 g/m*3 0.3 C 0 km/h
262 22-12-2010 04:24:05 0.3 C 4.55 g/m*3 0.3 C 0 km/h
263 22-12-2010 04:36:05 0.3 C 4.55 g/m*3 0.3 C 0 km/h
264 22-12-2010 04:48:05 0.3 C 4.55 g/m*3 0.3 C 0 km/h
265 22-12-2010 05:00:05 0.3 C 4.55 g/m*3 0.3 C 0 km/h
266 22-12-2010 05:12:05 0.3 C 4.55 g/m*3 0.3 C 0 km/h
267 22-12-2010 05:24:05 0.3 C 4.55 g/m*3 0.3 C 0 km/h
268 22-12-2010 05:36:05 0.3 C 4.55 g/m*3 0.3 C 0 km/h
269 22-12-2010 05:48:05 0.3 C 4.55 g/m*3 0.3 C 0 km/h
270 22-12-2010 06:00:05 0.3 C 4.55 g/m*3 0.3 C 0 km/h
271 22-12-2010 06:12:06 0.3 C 4.55 g/m*3 0.3 C 0 km/h
272 22-12-2010 06:24:06 0.3 C 4.55 g/m*3 0.3 C 0 km/h
273 22-12-2010 06:36:06 0.3 C 4.55 g/m*3 0.3 C 0 km/h
274 22-12-2010 06:48:06 0.3 C 4.55 g/m*3 0.3 C 0 km/h
275 22-12-2010 07:00:06 0.3 C 4.55 g/m*3 0.3 C 0 km/h
Sensor: Nr:Datum:Temp:Abs-Feuchte:Windchill:Wind:
Aussen-T/F 276 22-12-2010 07:12:06 0.3 C 4.55 g/m*3 0.3 C 0 km/h
277 22-12-2010 07:24:06 0.3 C 4.55 g/m*3 0.3 C 0 km/h
278 22-12-2010 07:36:03 0.3 C 4.6 g/m*3 0.3 C 0 km/h
279 22-12-2010 07:48:02 0.3 C 4.6 g/m*3 0.3 C 0 km/h
280 22-12-2010 08:00:02 0.3 C 4.6 g/m*3 0.3 C 0 km/h
281 22-12-2010 08:12:02 0.3 C 4.6 g/m*3 0.3 C 0 km/h
282 22-12-2010 08:24:01 0.3 C 4.6 g/m*3 0.3 C 0 km/h
283 22-12-2010 08:36:02 0.4 C 4.63 g/m*3 0.4 C 0 km/h
284 22-12-2010 08:48:02 0.4 C 4.63 g/m*3 0.4 C 0 km/h
285 22-12-2010 09:00:02 0.4 C 4.63 g/m*3 0.4 C 0 km/h
286 22-12-2010 09:12:02 0.6 C 4.7 g/m*3 0.6 C 0 km/h
287 22-12-2010 09:24:01 0.7 C 4.73 g/m*3 0.7 C 0 km/h
288 22-12-2010 09:36:02 0.9 C 4.79 g/m*3 0.9 C 0 km/h
289 22-12-2010 09:48:01 0.9 C 4.79 g/m*3 0.9 C 0 km/h
290 22-12-2010 10:00:01 1.1 C 4.81 g/m*3 1.1 C 0 km/h
291 22-12-2010 10:12:02 1.2 C 4.84 g/m*3 1.2 C 0 km/h
292 22-12-2010 10:24:02 1.2 C 4.84 g/m*3 1.2 C 0 km/h
293 22-12-2010 10:36:02 1.7 C 5.01 g/m*3 1.7 C 0 km/h
294 22-12-2010 10:48:02 1.7 C 5.01 g/m*3 1.7 C 0 km/h
295 22-12-2010 11:00:02 2 C 5 g/m*3 2 C 0 km/h
296 22-12-2010 11:12:02 1.9 C 4.97 g/m*3 1.9 C 0 km/h
297 22-12-2010 11:24:02 2.3 C 5.05 g/m*3 2.3 C 0 km/h
298 22-12-2010 11:36:01 2.7 C 5.13 g/m*3 2.7 C 0 km/h
299 22-12-2010 11:48:02 2.6 C 4.98 g/m*3 2.6 C 0 km/h
300 22-12-2010 12:00:02 2.7 C 4.95 g/m*3 2.7 C 0 km/h
Sensor: Nr:Datum:Temp:Abs-Feuchte:Windchill:Wind:
Aussen-T/F 301 22-12-2010 12:12:01 2.7 C 4.89 g/m*3 2.7 C 0 km/h
302 22-12-2010 12:24:01 2.9 C 4.9 g/m*3 2.9 C 0 km/h
303 22-12-2010 12:36:02 2.9 C 4.9 g/m*3 2.9 C 0 km/h
304 22-12-2010 12:48:02 2.6 C 4.8 g/m*3 2.6 C 0 km/h
305 22-12-2010 13:00:02 2.6 C 4.8 g/m*3 2.6 C 0 km/h
306 22-12-2010 13:12:02 2.3 C 4.71 g/m*3 2.3 C 0 km/h
307 22-12-2010 13:24:02 2.6 C 4.8 g/m*3 2.6 C 0 km/h
308 22-12-2010 13:36:02 2.3 C 4.71 g/m*3 2.3 C 0 km/h
309 22-12-2010 13:48:02 2.1 C 4.64 g/m*3 2.1 C 0 km/h
310 22-12-2010 14:00:02 2.1 C 4.7 g/m*3 2.1 C 0 km/h
311 22-12-2010 14:12:02 2.3 C 4.76 g/m*3 2.3 C 0 km/h
312 22-12-2010 14:24:02 2.6 C 4.86 g/m*3 2.6 C 0 km/h
313 22-12-2010 14:36:02 2.6 C 4.8 g/m*3 2.6 C 0 km/h
314 22-12-2010 14:48:02 2.4 C 4.68 g/m*3 2.4 C 0 km/h
315 22-12-2010 15:00:02 2 C 4.61 g/m*3 2 C 0 km/h
316 22-12-2010 15:12:02 1.7 C 4.57 g/m*3 1.7 C 0 km/h
317 22-12-2010 15:24:02 1.6 C 4.6 g/m*3 1.6 C 0 km/h
318 22-12-2010 15:36:02 1.6 C 4.6 g/m*3 1.6 C 0 km/h
319 22-12-2010 15:48:02 1.4 C 4.59 g/m*3 1.4 C 0 km/h
320 22-12-2010 16:00:02 1.4 C 4.64 g/m*3 1.4 C 0 km/h
321 22-12-2010 16:12:02 1.2 C 4.58 g/m*3 1.2 C 0 km/h
322 22-12-2010 16:24:02 1.2 C 4.63 g/m*3 1.2 C 0 km/h
323 22-12-2010 16:36:02 1 C 4.57 g/m*3 1 C 0 km/h
324 22-12-2010 16:48:02 1 C 4.57 g/m*3 1 C 0 km/h
325 22-12-2010 17:00:02 0.9 C 4.59 g/m*3 0.9 C 0 km/h
Sensor: Nr:Datum:Temp:Abs-Feuchte:Windchill:Wind:
Aussen-T/F 326 22-12-2010 17:12:02 0.8 C 4.56 g/m*3 0.8 C 0 km/h
327 22-12-2010 17:24:02 0.7 C 4.58 g/m*3 0.7 C 0 km/h
328 22-12-2010 17:36:01 0.8 C 4.61 g/m*3 0.8 C 0 km/h
329 22-12-2010 17:48:02 0.8 C 4.66 g/m*3 0.8 C 0 km/h
330 22-12-2010 18:00:02 0.7 C 4.63 g/m*3 0.7 C 0 km/h
331 22-12-2010 18:12:01 0.7 C 4.63 g/m*3 0.7 C 0 km/h
332 22-12-2010 18:24:01 0.6 C 4.6 g/m*3 0.6 C 0 km/h
333 22-12-2010 18:36:02 0.8 C 4.66 g/m*3 0.8 C 0 km/h
334 22-12-2010 18:48:02 0.7 C 4.63 g/m*3 0.7 C 0 km/h
335 22-12-2010 19:00:02 0.7 C 4.68 g/m*3 0.7 C 0 km/h
336 22-12-2010 19:12:02 0.8 C 4.71 g/m*3 0.8 C 0 km/h
337 22-12-2010 19:24:02 0.8 C 4.71 g/m*3 0.8 C 0 km/h
338 22-12-2010 19:36:02 0.8 C 4.71 g/m*3 0.8 C 0 km/h
339 22-12-2010 19:48:02 0.8 C 4.71 g/m*3 0.8 C 0 km/h
340 22-12-2010 20:00:02 0.7 C 4.68 g/m*3 0.7 C 0 km/h
341 22-12-2010 20:12:03 0.8 C 4.71 g/m*3 0.8 C 0 km/h
342 22-12-2010 20:24:02 0.8 C 4.71 g/m*3 0.8 C 0 km/h
343 22-12-2010 20:36:02 0.8 C 4.71 g/m*3 0.8 C 0 km/h
344 22-12-2010 20:48:01 0.8 C 4.71 g/m*3 0.8 C 0 km/h
345 22-12-2010 21:00:01 0.8 C 4.71 g/m*3 0.8 C 0 km/h
346 22-12-2010 21:12:01 0.8 C 4.71 g/m*3 0.8 C 0 km/h
347 22-12-2010 21:24:01 0.8 C 4.71 g/m*3 0.8 C 0 km/h
348 22-12-2010 21:36:01 0.8 C 4.71 g/m*3 0.8 C 0 km/h
349 22-12-2010 21:48:01 0.8 C 4.71 g/m*3 0.8 C 0 km/h
350 22-12-2010 22:00:01 0.7 C 4.68 g/m*3 0.7 C 0 km/h
Sensor: Nr:Datum:Temp:Abs-Feuchte:Windchill:Wind:
Aussen-T/F 351 22-12-2010 22:13:03 0.7 C 4.68 g/m*3 0.7 C 0 km/h
352 22-12-2010 22:25:03 0.7 C 4.68 g/m*3 0.7 C 0 km/h
353 22-12-2010 22:37:03 0.7 C 4.68 g/m*3 0.7 C 0 km/h
354 22-12-2010 22:49:03 0.7 C 4.68 g/m*3 0.7 C 0 km/h
355 22-12-2010 23:01:03 0.7 C 4.68 g/m*3 0.7 C 0 km/h
356 22-12-2010 23:13:03 0.7 C 4.68 g/m*3 0.7 C 0 km/h
357 22-12-2010 23:25:03 0.7 C 4.68 g/m*3 0.7 C 0 km/h
358 22-12-2010 23:37:03 0.7 C 4.68 g/m*3 0.7 C 0 km/h
359 22-12-2010 23:49:03 0.7 C 4.68 g/m*3 0.7 C 0 km/h
360 23-12-2010 00:01:03 0.7 C 4.68 g/m*3 0.7 C 0 km/h
361 23-12-2010 00:13:03 0.8 C 4.76 g/m*3 0.8 C 0 km/h
362 23-12-2010 00:25:03 0.8 C 4.76 g/m*3 0.8 C 0 km/h
363 23-12-2010 00:37:03 0.8 C 4.76 g/m*3 0.8 C 0 km/h
364 23-12-2010 00:49:03 0.7 C 4.73 g/m*3 0.7 C 0 km/h
365 23-12-2010 01:01:04 0.7 C 4.73 g/m*3 0.7 C 0 km/h
366 23-12-2010 01:13:04 0.7 C 4.73 g/m*3 0.7 C 0 km/h
367 23-12-2010 01:25:04 0.7 C 4.73 g/m*3 0.7 C 0 km/h
368 23-12-2010 01:37:04 0.7 C 4.73 g/m*3 0.7 C 0 km/h
369 23-12-2010 01:49:04 0.7 C 4.73 g/m*3 0.7 C 0 km/h
370 23-12-2010 02:01:04 0.7 C 4.73 g/m*3 0.7 C 0 km/h
371 23-12-2010 02:13:04 0.7 C 4.73 g/m*3 0.7 C 0 km/h
372 23-12-2010 02:25:04 0.7 C 4.73 g/m*3 0.7 C 0 km/h
373 23-12-2010 02:37:04 0.7 C 4.73 g/m*3 0.7 C 0 km/h
374 23-12-2010 02:49:04 0.7 C 4.73 g/m*3 0.7 C 0 km/h
375 23-12-2010 03:01:04 0.7 C 4.73 g/m*3 0.7 C 0 km/h
Sensor: Nr:Datum:Temp:Abs-Feuchte:Windchill:Wind:
Aussen-T/F 376 23-12-2010 03:13:04 0.7 C 4.73 g/m*3 0.7 C 0 km/h
377 23-12-2010 03:25:04 0.7 C 4.73 g/m*3 0.7 C 0 km/h
378 23-12-2010 03:37:04 0.7 C 4.73 g/m*3 0.7 C 0 km/h
379 23-12-2010 03:49:04 0.7 C 4.73 g/m*3 0.7 C 0 km/h
380 23-12-2010 04:01:04 0.7 C 4.73 g/m*3 0.7 C 0 km/h
381 23-12-2010 04:13:04 0.7 C 4.73 g/m*3 0.7 C 0 km/h
382 23-12-2010 04:25:04 0.7 C 4.73 g/m*3 0.7 C 0 km/h
383 23-12-2010 04:37:04 0.6 C 4.7 g/m*3 0.6 C 0 km/h
384 23-12-2010 04:49:04 0.6 C 4.7 g/m*3 0.6 C 0 km/h
385 23-12-2010 05:01:04 0.6 C 4.7 g/m*3 0.6 C 0 km/h
386 23-12-2010 05:13:05 0.6 C 4.7 g/m*3 0.6 C 0 km/h
387 23-12-2010 05:25:05 0.4 C 4.63 g/m*3 0.4 C 0 km/h
388 23-12-2010 05:37:05 0.4 C 4.63 g/m*3 0.4 C 0 km/h
389 23-12-2010 05:49:05 0.4 C 4.63 g/m*3 0.4 C 0 km/h
390 23-12-2010 06:01:05 0.4 C 4.63 g/m*3 0.4 C 0 km/h
391 23-12-2010 06:13:05 0.4 C 4.63 g/m*3 0.4 C 0 km/h
392 23-12-2010 06:25:05 0.4 C 4.63 g/m*3 0.4 C 0 km/h
393 23-12-2010 06:37:05 0.4 C 4.63 g/m*3 0.4 C 0 km/h
394 23-12-2010 06:49:05 0.1 C 4.54 g/m*3 0.1 C 0 km/h
395 23-12-2010 07:01:05 0.1 C 4.54 g/m*3 0.1 C 0 km/h
396 23-12-2010 07:13:05 0.1 C 4.54 g/m*3 0.1 C 0 km/h
397 23-12-2010 07:25:03 0 C 4.51 g/m*3 0 C 0 km/h
398 23-12-2010 07:37:03 -0.1 C 4.47 g/m*3 -0.1 C 0 km/h
399 23-12-2010 07:49:02 -0.1 C 4.47 g/m*3 -0.1 C 0 km/h
400 23-12-2010 08:01:02 -0.2 C 4.44 g/m*3 -0.2 C 0 km/h
Sensor: Nr:Datum:Temp:Abs-Feuchte:Windchill:Wind:
Aussen-T/F 401 23-12-2010 08:13:03 -0.2 C 4.44 g/m*3 -0.2 C 0 km/h
402 23-12-2010 08:25:02 -0.3 C 4.41 g/m*3 -0.3 C 0 km/h
403 23-12-2010 08:37:02 -0.4 C 4.34 g/m*3 -0.4 C 0 km/h
404 23-12-2010 08:49:01 -0.5 C 4.31 g/m*3 -0.5 C 0 km/h
405 23-12-2010 09:01:01 -0.5 C 4.31 g/m*3 -0.5 C 0 km/h
406 23-12-2010 09:13:01 -0.5 C 4.31 g/m*3 -0.5 C 0 km/h
407 23-12-2010 09:25:02 -0.6 C 4.28 g/m*3 -0.6 C 0 km/h
408 23-12-2010 09:37:01 -0.5 C 4.31 g/m*3 -0.5 C 0 km/h
409 23-12-2010 09:49:03 -0.4 C 4.34 g/m*3 -0.4 C 0 km/h
410 23-12-2010 10:01:02 -0.4 C 4.34 g/m*3 -0.4 C 0 km/h
411 23-12-2010 10:13:02 -0.4 C 4.34 g/m*3 -0.4 C 0 km/h
412 23-12-2010 10:25:02 -0.5 C 4.31 g/m*3 -0.5 C 0 km/h
413 23-12-2010 10:37:02 -0.7 C 4.2 g/m*3 -0.7 C 0 km/h
414 23-12-2010 10:49:02 -0.7 C 4.15 g/m*3 -0.7 C 0 km/h
415 23-12-2010 11:01:01 -0.8 C 4.13 g/m*3 -0.8 C 0 km/h
416 23-12-2010 11:13:01 -0.6 C 4.18 g/m*3 -0.6 C 0 km/h
417 23-12-2010 11:25:02 -0.5 C 4.21 g/m*3 -0.5 C 0 km/h
418 23-12-2010 11:37:02 -0.5 C 4.21 g/m*3 -0.5 C 0 km/h
419 23-12-2010 11:49:01 -0.5 C 4.21 g/m*3 -0.5 C 0 km/h
420 23-12-2010 12:01:01 -0.5 C 4.21 g/m*3 -0.5 C 0 km/h
421 23-12-2010 12:13:01 -0.8 C 4.03 g/m*3 -0.8 C 0 km/h
422 23-12-2010 12:25:01 -0.7 C 4.02 g/m*3 -0.7 C 0 km/h
423 23-12-2010 12:37:02 -0.7 C 4.02 g/m*3 -0.7 C 0 km/h
424 23-12-2010 12:49:02 -0.7 C 4.02 g/m*3 -0.7 C 0 km/h
425 23-12-2010 13:01:02 -0.7 C 4.02 g/m*3 -0.7 C 0 km/h
Sensor: Nr:Datum:Temp:Abs-Feuchte:Windchill:Wind:
Aussen-T/F 426 23-12-2010 13:13:02 -0.6 C 4.04 g/m*3 -0.6 C 0 km/h
427 23-12-2010 13:25:01 -0.6 C 4 g/m*3 -0.6 C 0 km/h
428 23-12-2010 13:37:02 -0.7 C 3.97 g/m*3 -0.7 C 0 km/h
429 23-12-2010 13:49:02 -0.7 C 3.97 g/m*3 -0.7 C 0 km/h
430 23-12-2010 14:01:02 -0.5 C 4.03 g/m*3 -0.5 C 0 km/h
431 23-12-2010 14:13:03 -0.6 C 4 g/m*3 -0.6 C 0 km/h
432 23-12-2010 14:25:01 -0.6 C 4 g/m*3 -0.6 C 0 km/h
433 23-12-2010 14:37:02 -0.6 C 4 g/m*3 -0.6 C 0 km/h
434 23-12-2010 14:49:01 -0.8 C 3.94 g/m*3 -0.8 C 0 km/h
435 23-12-2010 15:01:02 -0.8 C 3.94 g/m*3 -0.8 C 0 km/h
436 23-12-2010 15:13:02 -0.8 C 3.94 g/m*3 -0.8 C 0 km/h
437 23-12-2010 15:25:02 -0.9 C 3.91 g/m*3 -0.9 C 0 km/h
438 23-12-2010 15:37:01 -0.9 C 3.91 g/m*3 -0.9 C 0 km/h
439 23-12-2010 15:49:02 -0.9 C 3.96 g/m*3 -0.9 C 0 km/h
440 23-12-2010 16:01:01 -0.9 C 3.96 g/m*3 -0.9 C 0 km/h
441 23-12-2010 16:13:01 -0.8 C 3.99 g/m*3 -0.8 C 0 km/h
442 23-12-2010 16:25:02 -0.9 C 3.96 g/m*3 -0.9 C 0 km/h
443 23-12-2010 16:37:01 -0.9 C 3.96 g/m*3 -0.9 C 0 km/h
444 23-12-2010 16:49:02 -1 C 3.93 g/m*3 -1 C 0 km/h
445 23-12-2010 17:01:02 -1 C 3.93 g/m*3 -1 C 0 km/h
446 23-12-2010 17:13:02 -1 C 3.93 g/m*3 -1 C 0 km/h
447 23-12-2010 17:25:02 -1 C 3.93 g/m*3 -1 C 0 km/h
448 23-12-2010 17:37:03 -1 C 3.93 g/m*3 -1 C 0 km/h
449 23-12-2010 17:49:02 -1.1 C 3.91 g/m*3 -1.1 C 0 km/h
450 23-12-2010 18:01:02 -1.1 C 3.91 g/m*3 -1.1 C 0 km/h
Sensor: Nr:Datum:Temp:Abs-Feuchte:Windchill:Wind:
Aussen-T/F 451 23-12-2010 18:13:02 -1.1 C 3.91 g/m*3 -1.1 C 0 km/h
452 23-12-2010 18:25:01 -1.1 C 3.91 g/m*3 -1.1 C 0 km/h
453 23-12-2010 18:37:02 -1.2 C 3.88 g/m*3 -1.2 C 0 km/h
454 23-12-2010 18:49:02 -1.2 C 3.88 g/m*3 -1.2 C 0 km/h
455 23-12-2010 19:01:02 -1.2 C 3.88 g/m*3 -1.2 C 0 km/h
456 23-12-2010 19:13:02 -1.2 C 3.88 g/m*3 -1.2 C 0 km/h
457 23-12-2010 19:25:01 -1.3 C 3.85 g/m*3 -1.3 C 0 km/h
458 23-12-2010 19:37:02 -1.3 C 3.81 g/m*3 -1.3 C 0 km/h
459 23-12-2010 19:49:02 -1.3 C 3.81 g/m*3 -1.3 C 0 km/h
460 23-12-2010 20:01:02 -1.4 C 3.78 g/m*3 -1.4 C 0 km/h
461 23-12-2010 20:13:02 -1.3 C 3.85 g/m*3 -1.3 C 0 km/h
462 23-12-2010 20:25:02 -1.2 C 3.88 g/m*3 -1.2 C 0 km/h
463 23-12-2010 20:37:02 -1.2 C 3.83 g/m*3 -1.2 C 0 km/h
464 23-12-2010 20:49:02 -1.2 C 3.83 g/m*3 -1.2 C 0 km/h
465 23-12-2010 21:01:02 -1.2 C 3.83 g/m*3 -1.2 C 0 km/h
466 23-12-2010 21:13:02 -1.2 C 3.83 g/m*3 -1.2 C 0 km/h
467 23-12-2010 21:25:02 -1.1 C 3.86 g/m*3 -1.1 C 0 km/h
468 23-12-2010 21:37:01 -1 C 3.89 g/m*3 -1 C 0 km/h
469 23-12-2010 21:50:02 -1 C 3.89 g/m*3 -1 C 0 km/h
470 23-12-2010 22:02:02 -0.9 C 3.91 g/m*3 -0.9 C 0 km/h
471 23-12-2010 22:14:02 -1 C 3.89 g/m*3 -1 C 0 km/h
472 23-12-2010 22:26:02 -1 C 3.89 g/m*3 -1 C 0 km/h
473 23-12-2010 22:38:02 -0.9 C 3.96 g/m*3 -0.9 C 0 km/h
474 23-12-2010 22:50:02 -0.9 C 3.96 g/m*3 -0.9 C 0 km/h
475 23-12-2010 23:02:02 -0.9 C 3.96 g/m*3 -0.9 C 0 km/h
Sensor: Nr:Datum:Temp:Abs-Feuchte:Windchill:Wind:
Aussen-T/F 476 23-12-2010 23:14:02 -0.8 C 3.99 g/m*3 -0.8 C 0 km/h
477 23-12-2010 23:26:03 -0.7 C 4.02 g/m*3 -0.7 C 0 km/h
478 23-12-2010 23:38:03 -0.8 C 3.94 g/m*3 -0.8 C 0 km/h
479 23-12-2010 23:50:03 -0.8 C 3.99 g/m*3 -0.8 C 0 km/h
480 24-12-2010 00:02:03 -0.9 C 3.91 g/m*3 -0.9 C 0 km/h
481 24-12-2010 00:14:03 -0.9 C 3.91 g/m*3 -0.9 C 0 km/h
482 24-12-2010 00:26:03 -0.9 C 3.91 g/m*3 -0.9 C 0 km/h
483 24-12-2010 00:38:03 -0.9 C 3.91 g/m*3 -0.9 C 0 km/h
484 24-12-2010 00:50:03 -0.9 C 3.91 g/m*3 -0.9 C 0 km/h
485 24-12-2010 01:02:03 -0.9 C 3.91 g/m*3 -0.9 C 0 km/h
486 24-12-2010 01:14:03 -0.9 C 3.96 g/m*3 -0.9 C 0 km/h
487 24-12-2010 01:26:03 -0.7 C 4.02 g/m*3 -0.7 C 0 km/h
488 24-12-2010 01:38:03 -0.7 C 3.97 g/m*3 -0.7 C 0 km/h
489 24-12-2010 01:50:03 -0.5 C 4.03 g/m*3 -0.5 C 0 km/h
490 24-12-2010 02:02:03 -0.6 C 4 g/m*3 -0.6 C 0 km/h
491 24-12-2010 02:14:03 -0.6 C 4 g/m*3 -0.6 C 0 km/h
492 24-12-2010 02:26:03 -0.5 C 4.03 g/m*3 -0.5 C 0 km/h
493 24-12-2010 02:38:03 -0.4 C 4.05 g/m*3 -0.4 C 0 km/h
494 24-12-2010 02:50:03 -0.4 C 4.05 g/m*3 -0.4 C 0 km/h
495 24-12-2010 03:02:03 -0.4 C 4.05 g/m*3 -0.4 C 0 km/h
496 24-12-2010 03:14:03 -0.5 C 4.03 g/m*3 -0.5 C 0 km/h
497 24-12-2010 03:26:03 -0.5 C 4.03 g/m*3 -0.5 C 0 km/h
498 24-12-2010 03:38:04 -0.5 C 4.03 g/m*3 -0.5 C 0 km/h
499 24-12-2010 03:50:04 -0.5 C 4.03 g/m*3 -0.5 C 0 km/h
500 24-12-2010 04:02:04 -0.5 C 4.03 g/m*3 -0.5 C 0 km/h
Sensor: Nr:Datum:Temp:Abs-Feuchte:Windchill:Wind:
Aussen-T/F 501 24-12-2010 04:14:04 -0.5 C 4.03 g/m*3 -0.5 C 0 km/h
502 24-12-2010 04:26:04 -0.5 C 4.03 g/m*3 -0.5 C 0 km/h
503 24-12-2010 04:38:04 -0.5 C 4.03 g/m*3 -0.5 C 0 km/h
504 24-12-2010 04:50:04 -0.5 C 4.03 g/m*3 -0.5 C 0 km/h
505 24-12-2010 05:02:04 -0.5 C 3.98 g/m*3 -0.5 C 0 km/h
506 24-12-2010 05:14:04 -0.7 C 3.92 g/m*3 -0.7 C 0 km/h
507 24-12-2010 05:26:04 -0.7 C 3.92 g/m*3 -0.7 C 0 km/h
508 24-12-2010 05:38:04 -0.9 C 3.87 g/m*3 -0.9 C 0 km/h
509 24-12-2010 05:50:04 -0.9 C 3.87 g/m*3 -0.9 C 0 km/h
510 24-12-2010 06:02:04 -0.9 C 3.87 g/m*3 -0.9 C 0 km/h
511 24-12-2010 06:14:04 -1 C 3.8 g/m*3 -1 C 0 km/h
512 24-12-2010 06:26:04 -1 C 3.8 g/m*3 -1 C 0 km/h
513 24-12-2010 06:38:04 -0.9 C 3.78 g/m*3 -0.9 C 0 km/h
514 24-12-2010 06:50:04 -1 C 3.71 g/m*3 -1 C 0 km/h
515 24-12-2010 07:02:04 -1.1 C 3.68 g/m*3 -1.1 C 0 km/h
516 24-12-2010 07:14:04 -1.2 C 3.66 g/m*3 -1.2 C 0 km/h
517 24-12-2010 07:26:04 -1.2 C 3.61 g/m*3 -1.2 C 0 km/h
518 24-12-2010 07:38:04 -1.2 C 3.61 g/m*3 -1.2 C 0 km/h
519 24-12-2010 07:50:04 -1.3 C 3.63 g/m*3 -1.3 C 0 km/h
520 24-12-2010 08:02:05 -1.3 C 3.63 g/m*3 -1.3 C 0 km/h
521 24-12-2010 08:14:05 -1.4 C 3.65 g/m*3 -1.4 C 0 km/h
522 24-12-2010 08:26:05 -1.5 C 3.62 g/m*3 -1.5 C 0 km/h
523 24-12-2010 08:38:05 -1.6 C 3.64 g/m*3 -1.6 C 0 km/h
524 24-12-2010 08:50:05 -1.6 C 3.64 g/m*3 -1.6 C 0 km/h
525 24-12-2010 09:02:02 -1.7 C 3.66 g/m*3 -1.7 C 0 km/h
Sensor: Nr:Datum:Temp:Abs-Feuchte:Windchill:Wind:
Aussen-T/F 526 24-12-2010 09:14:02 -1.7 C 3.66 g/m*3 -1.7 C 0 km/h
527 24-12-2010 09:26:02 -1.7 C 3.66 g/m*3 -1.7 C 0 km/h
528 24-12-2010 09:38:02 -1.7 C 3.66 g/m*3 -1.7 C 0 km/h
529 24-12-2010 09:50:02 -1.7 C 3.66 g/m*3 -1.7 C 0 km/h
530 24-12-2010 10:02:02 -1.7 C 3.66 g/m*3 -1.7 C 0 km/h
531 24-12-2010 10:14:02 -1.6 C 3.68 g/m*3 -1.6 C 0 km/h
532 24-12-2010 10:26:02 -1.6 C 3.68 g/m*3 -1.6 C 0 km/h
533 24-12-2010 10:38:02 -1.5 C 3.67 g/m*3 -1.5 C 0 km/h
534 24-12-2010 10:50:01 -1.3 C 3.72 g/m*3 -1.3 C 0 km/h
535 24-12-2010 11:02:02 -1.5 C 3.67 g/m*3 -1.5 C 0 km/h
536 24-12-2010 11:14:02 -1.3 C 3.72 g/m*3 -1.3 C 0 km/h
537 24-12-2010 11:26:01 -1.3 C 3.67 g/m*3 -1.3 C 0 km/h
538 24-12-2010 11:38:02 -1.2 C 3.66 g/m*3 -1.2 C 0 km/h
539 24-12-2010 11:50:03 -1.3 C 3.63 g/m*3 -1.3 C 0 km/h
540 24-12-2010 12:02:02 -1.3 C 3.59 g/m*3 -1.3 C 0 km/h
541 24-12-2010 12:14:02 -1.3 C 3.59 g/m*3 -1.3 C 0 km/h
542 24-12-2010 12:26:02 -1.6 C 3.51 g/m*3 -1.6 C 0 km/h
543 24-12-2010 12:38:02 -1.4 C 3.56 g/m*3 -1.4 C 0 km/h
544 24-12-2010 12:50:02 -1.1 C 3.64 g/m*3 -1.1 C 0 km/h
545 24-12-2010 13:02:02 -1.3 C 3.54 g/m*3 -1.3 C 0 km/h
546 24-12-2010 13:14:02 -1.4 C 3.52 g/m*3 -1.4 C 0 km/h
547 24-12-2010 13:26:01 -1.4 C 3.52 g/m*3 -1.4 C 0 km/h
548 24-12-2010 13:38:02 -1.4 C 3.52 g/m*3 -1.4 C 0 km/h
549 24-12-2010 13:50:02 -1.4 C 3.52 g/m*3 -1.4 C 0 km/h
550 24-12-2010 14:02:02 -1.4 C 3.52 g/m*3 -1.4 C 0 km/h
Sensor: Nr:Datum:Temp:Abs-Feuchte:Windchill:Wind:
Aussen-T/F 551 24-12-2010 14:14:02 -1.4 C 3.52 g/m*3 -1.4 C 0 km/h
552 24-12-2010 14:26:02 -1.4 C 3.52 g/m*3 -1.4 C 0 km/h
553 24-12-2010 14:38:02 -1.4 C 3.52 g/m*3 -1.4 C 0 km/h
554 24-12-2010 14:50:02 -1.4 C 3.52 g/m*3 -1.4 C 0 km/h
555 24-12-2010 15:02:02 -1.4 C 3.52 g/m*3 -1.4 C 0 km/h
556 24-12-2010 15:14:02 -1.4 C 3.52 g/m*3 -1.4 C 0 km/h
557 24-12-2010 15:26:02 -2 C 3.46 g/m*3 -2 C 0 km/h
558 24-12-2010 15:38:02 -2.2 C 3.41 g/m*3 -2.2 C 0 km/h
559 24-12-2010 15:50:01 -2.2 C 3.41 g/m*3 -2.2 C 0 km/h
560 24-12-2010 16:02:02 -2.2 C 3.41 g/m*3 -2.2 C 0 km/h
561 24-12-2010 16:14:02 -2.4 C 3.36 g/m*3 -2.4 C 0 km/h
562 24-12-2010 16:26:01 -2.5 C 3.34 g/m*3 -2.5 C 0 km/h
563 24-12-2010 16:38:01 -2.5 C 3.34 g/m*3 -2.5 C 0 km/h
564 24-12-2010 16:50:01 -2.5 C 3.3 g/m*3 -2.5 C 0 km/h
565 24-12-2010 17:02:01 -2.5 C 3.26 g/m*3 -2.5 C 0 km/h
566 24-12-2010 17:14:01 -2.5 C 3.26 g/m*3 -2.5 C 0 km/h
567 24-12-2010 17:26:02 -2.5 C 3.21 g/m*3 -2.5 C 0 km/h
568 24-12-2010 17:38:02 -2.6 C 3.19 g/m*3 -2.6 C 0 km/h
569 24-12-2010 17:50:02 -2.7 C 3.17 g/m*3 -2.7 C 0 km/h
570 24-12-2010 18:02:02 -2.7 C 3.25 g/m*3 -2.7 C 0 km/h
571 24-12-2010 18:14:02 -2.8 C 3.23 g/m*3 -2.8 C 0 km/h
572 24-12-2010 18:26:02 -2.8 C 3.23 g/m*3 -2.8 C 0 km/h
573 24-12-2010 18:38:02 -2.9 C 3.2 g/m*3 -2.9 C 0 km/h
574 24-12-2010 18:50:02 -2.8 C 3.23 g/m*3 -2.8 C 0 km/h
575 24-12-2010 19:02:02 -2.9 C 3.16 g/m*3 -2.9 C 0 km/h
Sensor: Nr:Datum:Temp:Abs-Feuchte:Windchill:Wind:
Aussen-T/F 576 24-12-2010 19:14:03 -2.9 C 3.16 g/m*3 -2.9 C 0 km/h
577 24-12-2010 19:26:02 -2.9 C 3.13 g/m*3 -2.9 C 0 km/h
578 24-12-2010 19:38:02 -3 C 3.1 g/m*3 -3 C 0 km/h
579 24-12-2010 19:50:01 -3 C 3.1 g/m*3 -3 C 0 km/h
580 24-12-2010 20:02:01 -3 C 3.1 g/m*3 -3 C 0 km/h
581 24-12-2010 20:14:01 -3 C 3.14 g/m*3 -3 C 0 km/h
582 24-12-2010 20:26:02 -3 C 3.1 g/m*3 -3 C 0 km/h
583 24-12-2010 20:38:01 -3 C 3.1 g/m*3 -3 C 0 km/h
584 24-12-2010 20:50:01 -3.1 C 3.08 g/m*3 -3.1 C 0 km/h
585 24-12-2010 21:02:01 -3.1 C 3.08 g/m*3 -3.1 C 0 km/h
586 24-12-2010 21:14:01 -3.2 C 3.06 g/m*3 -3.2 C 0 km/h
587 24-12-2010 21:19:02 -3.2 C 3.06 g/m*3 -3.2 C 0 km/h
588 24-12-2010 21:31:01 -3.3 C 3.04 g/m*3 -3.3 C 0 km/h
589 24-12-2010 21:43:01 -3.3 C 3.04 g/m*3 -3.3 C 0 km/h
590 24-12-2010 21:55:02 -3.3 C 3.08 g/m*3 -3.3 C 0 km/h
591 24-12-2010 22:07:01 -3.4 C 3.05 g/m*3 -3.4 C 0 km/h
592 24-12-2010 22:19:01 -3.5 C 3.03 g/m*3 -3.5 C 0 km/h
593 24-12-2010 22:31:02 -3.6 C 3.01 g/m*3 -3.6 C 0 km/h
594 24-12-2010 22:43:02 -3.6 C 3.01 g/m*3 -3.6 C 0 km/h
595 24-12-2010 22:55:02 -3.7 C 2.99 g/m*3 -3.7 C 0 km/h
596 24-12-2010 23:07:02 -3.7 C 2.99 g/m*3 -3.7 C 0 km/h
597 24-12-2010 23:19:02 -3.7 C 2.99 g/m*3 -3.7 C 0 km/h
598 24-12-2010 23:31:02 -3.7 C 2.99 g/m*3 -3.7 C 0 km/h
599 24-12-2010 23:43:02 -3.8 C 2.97 g/m*3 -3.8 C 0 km/h
600 24-12-2010 23:56:02 -3.8 C 2.97 g/m*3 -3.8 C 0 km/h
Sensor: Nr:Datum:Temp:Abs-Feuchte:Windchill:Wind:
Aussen-T/F 601 25-12-2010 00:08:02 -3.8 C 2.97 g/m*3 -3.8 C 0 km/h
602 25-12-2010 00:20:02 -3.8 C 2.97 g/m*3 -3.8 C 0 km/h
603 25-12-2010 00:32:02 -3.8 C 2.97 g/m*3 -3.8 C 0 km/h
604 25-12-2010 00:44:03 -3.8 C 2.93 g/m*3 -3.8 C 0 km/h
605 25-12-2010 00:56:03 -3.9 C 2.87 g/m*3 -3.9 C 0 km/h
606 25-12-2010 01:08:03 -3.9 C 2.87 g/m*3 -3.9 C 0 km/h
607 25-12-2010 01:20:03 -3.9 C 2.87 g/m*3 -3.9 C 0 km/h
608 25-12-2010 01:32:03 -3.9 C 2.87 g/m*3 -3.9 C 0 km/h
609 25-12-2010 01:44:03 -3.9 C 2.87 g/m*3 -3.9 C 0 km/h
610 25-12-2010 01:56:03 -4 C 2.89 g/m*3 -4 C 0 km/h
611 25-12-2010 02:08:03 -4.1 C 2.87 g/m*3 -4.1 C 0 km/h
612 25-12-2010 02:20:03 -4.1 C 2.91 g/m*3 -4.1 C 0 km/h
613 25-12-2010 02:32:03 -4.1 C 2.87 g/m*3 -4.1 C 0 km/h
614 25-12-2010 02:44:03 -4.1 C 2.87 g/m*3 -4.1 C 0 km/h
615 25-12-2010 02:56:03 -4 C 2.85 g/m*3 -4 C 0 km/h
616 25-12-2010 03:08:03 -4.1 C 2.83 g/m*3 -4.1 C 0 km/h
617 25-12-2010 03:20:03 -4.1 C 2.83 g/m*3 -4.1 C 0 km/h
618 25-12-2010 03:32:03 -4.2 C 2.81 g/m*3 -4.2 C 0 km/h
619 25-12-2010 03:44:03 -4.2 C 2.81 g/m*3 -4.2 C 0 km/h
620 25-12-2010 03:56:03 -4.2 C 2.78 g/m*3 -4.2 C 0 km/h
621 25-12-2010 04:08:03 -4.2 C 2.74 g/m*3 -4.2 C 0 km/h
622 25-12-2010 04:20:03 -4.2 C 2.7 g/m*3 -4.2 C 0 km/h
623 25-12-2010 04:32:03 -4.2 C 2.67 g/m*3 -4.2 C 0 km/h
624 25-12-2010 04:44:03 -4.3 C 2.65 g/m*3 -4.3 C 0 km/h
625 25-12-2010 04:56:04 -4.4 C 2.63 g/m*3 -4.4 C 0 km/h
Sensor: Nr:Datum:Temp:Abs-Feuchte:Windchill:Wind:
Aussen-T/F 626 25-12-2010 05:08:04 -4.4 C 2.63 g/m*3 -4.4 C 0 km/h
627 25-12-2010 05:20:04 -4.4 C 2.6 g/m*3 -4.4 C 0 km/h
628 25-12-2010 05:32:04 -4.5 C 2.58 g/m*3 -4.5 C 0 km/h
629 25-12-2010 05:44:04 -4.5 C 2.58 g/m*3 -4.5 C 0 km/h
630 25-12-2010 05:56:04 -4.5 C 2.54 g/m*3 -4.5 C 0 km/h
631 25-12-2010 06:08:04 -4.6 C 2.52 g/m*3 -4.6 C 0 km/h
632 25-12-2010 06:20:04 -4.6 C 2.52 g/m*3 -4.6 C 0 km/h
633 25-12-2010 06:32:04 -4.6 C 2.52 g/m*3 -4.6 C 0 km/h
634 25-12-2010 06:44:04 -4.6 C 2.52 g/m*3 -4.6 C 0 km/h
635 25-12-2010 06:56:04 -4.7 C 2.47 g/m*3 -4.7 C 0 km/h
636 25-12-2010 07:08:04 -4.7 C 2.44 g/m*3 -4.7 C 0 km/h
637 25-12-2010 07:20:04 -4.7 C 2.44 g/m*3 -4.7 C 0 km/h
638 25-12-2010 07:32:04 -4.7 C 2.44 g/m*3 -4.7 C 0 km/h
639 25-12-2010 07:44:04 -4.7 C 2.47 g/m*3 -4.7 C 0 km/h
640 25-12-2010 07:56:04 -4.8 C 2.45 g/m*3 -4.8 C 0 km/h
641 25-12-2010 08:08:04 -4.7 C 2.47 g/m*3 -4.7 C 0 km/h
642 25-12-2010 08:20:04 -4.7 C 2.47 g/m*3 -4.7 C 0 km/h
643 25-12-2010 08:32:04 -4.8 C 2.49 g/m*3 -4.8 C 0 km/h
644 25-12-2010 08:44:04 -4.9 C 2.47 g/m*3 -4.9 C 0 km/h
645 25-12-2010 08:56:05 -4.9 C 2.47 g/m*3 -4.9 C 0 km/h
646 25-12-2010 09:08:05 -4.9 C 2.43 g/m*3 -4.9 C 0 km/h
647 25-12-2010 09:20:05 -4.8 C 2.45 g/m*3 -4.8 C 0 km/h
648 25-12-2010 09:32:02 -4.9 C 2.43 g/m*3 -4.9 C 0 km/h
649 25-12-2010 09:44:02 -4.8 C 2.42 g/m*3 -4.8 C 0 km/h
650 25-12-2010 09:56:02 -4.7 C 2.44 g/m*3 -4.7 C 0 km/h
Sensor: Nr:Datum:Temp:Abs-Feuchte:Windchill:Wind:
Aussen-T/F 651 25-12-2010 10:08:02 -4.7 C 2.4 g/m*3 -4.7 C 0 km/h
652 25-12-2010 10:20:02 -4.7 C 2.37 g/m*3 -4.7 C 0 km/h
653 25-12-2010 10:32:02 -4.7 C 2.33 g/m*3 -4.7 C 0 km/h
654 25-12-2010 10:44:02 -4.6 C 2.31 g/m*3 -4.6 C 0 km/h
655 25-12-2010 10:56:02 -4.2 C 2.38 g/m*3 -4.2 C 0 km/h
656 25-12-2010 11:08:02 -4.5 C 2.29 g/m*3 -4.5 C 0 km/h
657 25-12-2010 11:20:03 -4.1 C 2.29 g/m*3 -4.1 C 0 km/h
658 25-12-2010 11:32:02 -4.3 C 2.18 g/m*3 -4.3 C 0 km/h
659 25-12-2010 11:44:02 -4.9 C 2.06 g/m*3 -4.9 C 0 km/h
660 25-12-2010 11:56:03 -4.7 C 2.09 g/m*3 -4.7 C 0 km/h
661 25-12-2010 12:08:02 -4.9 C 2.06 g/m*3 -4.9 C 0 km/h
662 25-12-2010 12:20:02 -5.2 C 2.01 g/m*3 -5.2 C 0 km/h
663 25-12-2010 12:32:02 -4.9 C 2.09 g/m*3 -4.9 C 0 km/h
664 25-12-2010 12:44:02 -4.9 C 2.09 g/m*3 -4.9 C 0 km/h
665 25-12-2010 12:56:02 -5 C 2.08 g/m*3 -5 C 0 km/h
666 25-12-2010 13:08:02 -4.6 C 2.17 g/m*3 -4.6 C 0 km/h
667 25-12-2010 13:20:02 -4.5 C 2.19 g/m*3 -4.5 C 0 km/h
668 25-12-2010 13:32:02 -4.7 C 2.19 g/m*3 -4.7 C 0 km/h
669 25-12-2010 13:44:02 -5.1 C 2.13 g/m*3 -5.1 C 0 km/h
670 25-12-2010 13:56:02 -4.7 C 2.23 g/m*3 -4.7 C 0 km/h
671 25-12-2010 14:08:01 -5 C 2.11 g/m*3 -5 C 0 km/h
672 25-12-2010 14:20:02 -4.9 C 2.13 g/m*3 -4.9 C 0 km/h
673 25-12-2010 14:32:02 -4.9 C 2.09 g/m*3 -4.9 C 0 km/h
674 25-12-2010 14:44:02 -4.8 C 2.11 g/m*3 -4.8 C 0 km/h
675 25-12-2010 14:56:02 -5 C 2.08 g/m*3 -5 C 0 km/h
Sensor: Nr:Datum:Temp:Abs-Feuchte:Windchill:Wind:
Aussen-T/F 676 25-12-2010 15:08:02 -5 C 2.11 g/m*3 -5 C 0 km/h
677 25-12-2010 15:20:02 -5.4 C 2.05 g/m*3 -5.4 C 0 km/h
678 25-12-2010 15:32:02 -5.6 C 2.05 g/m*3 -5.6 C 0 km/h
679 25-12-2010 15:44:02 -5.7 C 2.1 g/m*3 -5.7 C 0 km/h
680 25-12-2010 15:56:01 -6 C 2.12 g/m*3 -6 C 0 km/h
681 25-12-2010 16:08:02 -6.4 C 2.12 g/m*3 -6.4 C 0 km/h
682 25-12-2010 16:20:01 -6.7 C 2.11 g/m*3 -6.7 C 0 km/h
683 25-12-2010 16:32:01 -6.8 C 2.12 g/m*3 -6.8 C 0 km/h
684 25-12-2010 16:44:01 -7.3 C 2.07 g/m*3 -7.3 C 0 km/h
685 25-12-2010 16:56:01 -6.9 C 2.19 g/m*3 -6.9 C 0 km/h
686 25-12-2010 17:08:01 -7.4 C 2.12 g/m*3 -7.4 C 0 km/h
687 25-12-2010 17:20:02 -7.6 C 2.11 g/m*3 -7.6 C 0 km/h
688 25-12-2010 17:32:01 -7.8 C 2.08 g/m*3 -7.8 C 0 km/h
689 25-12-2010 17:44:01 -7.3 C 2.19 g/m*3 -7.3 C 0 km/h
690 25-12-2010 17:56:02 -7.5 C 2.13 g/m*3 -7.5 C 0 km/h
691 25-12-2010 18:08:01 -7.6 C 2.14 g/m*3 -7.6 C 0 km/h
692 25-12-2010 18:20:02 -7.5 C 2.16 g/m*3 -7.5 C 0 km/h
693 25-12-2010 18:32:01 -7.4 C 2.2 g/m*3 -7.4 C 0 km/h
694 25-12-2010 18:44:01 -7.4 C 2.17 g/m*3 -7.4 C 0 km/h
695 25-12-2010 18:56:02 -7.4 C 2.17 g/m*3 -7.4 C 0 km/h
696 25-12-2010 19:08:02 -7.4 C 2.17 g/m*3 -7.4 C 0 km/h
697 25-12-2010 19:20:02 -7.4 C 2.17 g/m*3 -7.4 C 0 km/h
698 25-12-2010 19:32:03 -7.4 C 2.17 g/m*3 -7.4 C 0 km/h
699 25-12-2010 19:44:03 -7.4 C 2.17 g/m*3 -7.4 C 0 km/h
700 25-12-2010 19:56:02 -7.4 C 2.17 g/m*3 -7.4 C 0 km/h
Sensor: Nr:Datum:Temp:Abs-Feuchte:Windchill:Wind:
Aussen-T/F 701 25-12-2010 20:08:01 -7.4 C 2.17 g/m*3 -7.4 C 0 km/h
702 25-12-2010 20:20:02 -8.8 C 2.04 g/m*3 -8.8 C 0 km/h
703 25-12-2010 20:32:02 -9.2 C 1.98 g/m*3 -9.2 C 0 km/h
704 25-12-2010 20:44:02 -8.6 C 2.09 g/m*3 -8.6 C 0 km/h
705 25-12-2010 20:56:02 -7.7 C 2.26 g/m*3 -7.7 C 0 km/h
706 25-12-2010 21:08:02 -7.6 C 2.31 g/m*3 -7.6 C 0 km/h
707 25-12-2010 21:20:02 -7.7 C 2.26 g/m*3 -7.7 C 0 km/h
708 25-12-2010 21:32:02 -7.6 C 2.28 g/m*3 -7.6 C 0 km/h
709 25-12-2010 21:44:02 -7.2 C 2.35 g/m*3 -7.2 C 0 km/h
710 25-12-2010 21:56:01 -6.9 C 2.37 g/m*3 -6.9 C 0 km/h
711 25-12-2010 22:08:02 -6.8 C 2.36 g/m*3 -6.8 C 0 km/h
712 25-12-2010 22:20:01 -6.9 C 2.31 g/m*3 -6.9 C 0 km/h
713 25-12-2010 22:32:01 -6.8 C 2.33 g/m*3 -6.8 C 0 km/h
714 25-12-2010 22:44:01 -6.8 C 2.27 g/m*3 -6.8 C 0 km/h
715 25-12-2010 22:56:01 -6.7 C 2.26 g/m*3 -6.7 C 0 km/h
716 25-12-2010 23:08:02 -6.8 C 2.18 g/m*3 -6.8 C 0 km/h
717 25-12-2010 23:20:02 -6.8 C 2.18 g/m*3 -6.8 C 0 km/h
718 25-12-2010 23:32:01 -6.9 C 2.16 g/m*3 -6.9 C 0 km/h
719 25-12-2010 23:44:01 -6.8 C 2.18 g/m*3 -6.8 C 0 km/h
720 25-12-2010 23:56:02 -6.8 C 2.18 g/m*3 -6.8 C 0 km/h
721 26-12-2010 00:08:01 -6.8 C 2.18 g/m*3 -6.8 C 0 km/h
722 26-12-2010 00:20:01 -6.9 C 2.16 g/m*3 -6.9 C 0 km/h
723 26-12-2010 00:32:01 -7 C 2.12 g/m*3 -7 C 0 km/h
724 26-12-2010 00:44:01 -7.3 C 2.07 g/m*3 -7.3 C 0 km/h
725 26-12-2010 00:56:01 -7.4 C 2.09 g/m*3 -7.4 C 0 km/h
Sensor: Nr:Datum:Temp:Abs-Feuchte:Windchill:Wind:
Aussen-T/F 726 26-12-2010 01:08:02 -7.8 C 2 g/m*3 -7.8 C 0 km/h
727 26-12-2010 01:20:02 -7.9 C 2.01 g/m*3 -7.9 C 0 km/h
728 26-12-2010 01:32:01 -8 C 2 g/m*3 -8 C 0 km/h
729 26-12-2010 01:44:01 -8.2 C 1.97 g/m*3 -8.2 C 0 km/h
730 26-12-2010 01:56:01 -8.1 C 1.98 g/m*3 -8.1 C 0 km/h
731 26-12-2010 02:08:01 -8.6 C 1.88 g/m*3 -8.6 C 0 km/h
732 26-12-2010 02:20:02 -8.7 C 1.9 g/m*3 -8.7 C 0 km/h
733 26-12-2010 02:32:01 -8.8 C 1.88 g/m*3 -8.8 C 0 km/h
734 26-12-2010 02:44:01 -8.9 C 1.87 g/m*3 -8.9 C 0 km/h
735 26-12-2010 02:57:05 -8.9 C 1.87 g/m*3 -8.9 C 0 km/h
736 26-12-2010 03:09:05 -9 C 1.83 g/m*3 -9 C 0 km/h
737 26-12-2010 03:21:04 -9.1 C 1.81 g/m*3 -9.1 C 0 km/h
738 26-12-2010 03:33:02 -9.1 C 1.81 g/m*3 -9.1 C 0 km/h
739 26-12-2010 03:45:02 -9 C 1.83 g/m*3 -9 C 0 km/h
740 26-12-2010 03:57:02 -9 C 1.83 g/m*3 -9 C 0 km/h
741 26-12-2010 04:09:02 -9 C 1.83 g/m*3 -9 C 0 km/h
742 26-12-2010 04:21:02 -9.2 C 1.83 g/m*3 -9.2 C 0 km/h
743 26-12-2010 04:33:02 -9.1 C 1.86 g/m*3 -9.1 C 0 km/h
744 26-12-2010 04:45:02 -8.9 C 1.89 g/m*3 -8.9 C 0 km/h
745 26-12-2010 04:57:02 -9 C 1.85 g/m*3 -9 C 0 km/h
746 26-12-2010 05:09:02 -8.8 C 1.91 g/m*3 -8.8 C 0 km/h
747 26-12-2010 05:21:02 -8.6 C 1.91 g/m*3 -8.6 C 0 km/h
748 26-12-2010 05:33:02 -8.6 C 1.91 g/m*3 -8.6 C 0 km/h
749 26-12-2010 05:45:02 -8.2 C 1.97 g/m*3 -8.2 C 0 km/h
750 26-12-2010 05:57:02 -8 C 2.02 g/m*3 -8 C 0 km/h
Sensor: Nr:Datum:Temp:Abs-Feuchte:Windchill:Wind:
Aussen-T/F 751 26-12-2010 06:09:02 -7.6 C 2.06 g/m*3 -7.6 C 0 km/h
752 26-12-2010 06:21:02 -7.4 C 2.09 g/m*3 -7.4 C 0 km/h
753 26-12-2010 06:33:01 -7.3 C 2.1 g/m*3 -7.3 C 0 km/h
754 26-12-2010 06:45:02 -7 C 2.15 g/m*3 -7 C 0 km/h
755 26-12-2010 06:57:02 -6.9 C 2.16 g/m*3 -6.9 C 0 km/h
756 26-12-2010 07:09:01 -6.7 C 2.2 g/m*3 -6.7 C 0 km/h
757 26-12-2010 07:21:01 -6.4 C 2.25 g/m*3 -6.4 C 0 km/h
758 26-12-2010 07:33:02 -6.2 C 2.28 g/m*3 -6.2 C 0 km/h
759 26-12-2010 07:45:02 -6.2 C 2.25 g/m*3 -6.2 C 0 km/h
760 26-12-2010 07:57:02 -6.2 C 2.25 g/m*3 -6.2 C 0 km/h
761 26-12-2010 08:09:02 -6.1 C 2.3 g/m*3 -6.1 C 0 km/h
762 26-12-2010 08:21:02 -5.9 C 2.36 g/m*3 -5.9 C 0 km/h
763 26-12-2010 08:33:02 -5.8 C 2.35 g/m*3 -5.8 C 0 km/h
764 26-12-2010 08:45:02 -5.8 C 2.38 g/m*3 -5.8 C 0 km/h
765 26-12-2010 08:57:02 -5.6 C 2.45 g/m*3 -5.6 C 0 km/h
766 26-12-2010 09:09:02 -5.4 C 2.51 g/m*3 -5.4 C 0 km/h
767 26-12-2010 09:21:02 -5.2 C 2.55 g/m*3 -5.2 C 0 km/h
768 26-12-2010 09:33:02 -4.7 C 2.64 g/m*3 -4.7 C 0 km/h
769 26-12-2010 09:45:02 -4.6 C 2.63 g/m*3 -4.6 C 0 km/h
770 26-12-2010 09:57:02 -4.5 C 2.65 g/m*3 -4.5 C 0 km/h
771 26-12-2010 10:09:02 -4.5 C 2.65 g/m*3 -4.5 C 0 km/h
772 26-12-2010 10:21:02 -4.4 C 2.67 g/m*3 -4.4 C 0 km/h
773 26-12-2010 10:33:02 -4.4 C 2.67 g/m*3 -4.4 C 0 km/h
774 26-12-2010 10:45:02 -4.1 C 2.69 g/m*3 -4.1 C 0 km/h
775 26-12-2010 10:57:02 -3.8 C 2.71 g/m*3 -3.8 C 0 km/h
Sensor: Nr:Datum:Temp:Abs-Feuchte:Windchill:Wind:
Aussen-T/F 776 26-12-2010 11:09:03 -3.6 C 2.71 g/m*3 -3.6 C 0 km/h
777 26-12-2010 11:21:02 -3.5 C 2.69 g/m*3 -3.5 C 0 km/h
778 26-12-2010 11:33:02 -3.7 C 2.65 g/m*3 -3.7 C 0 km/h
779 26-12-2010 11:45:02 -3.5 C 2.69 g/m*3 -3.5 C 0 km/h
780 26-12-2010 11:57:02 -3.3 C 2.69 g/m*3 -3.3 C 0 km/h
781 26-12-2010 12:09:02 -3.4 C 2.71 g/m*3 -3.4 C 0 km/h
782 26-12-2010 12:21:02 -3.3 C 2.73 g/m*3 -3.3 C 0 km/h
783 26-12-2010 12:33:01 -3 C 2.83 g/m*3 -3 C 0 km/h
784 26-12-2010 12:45:02 -3.1 C 2.81 g/m*3 -3.1 C 0 km/h
785 26-12-2010 12:57:03 -2.9 C 2.85 g/m*3 -2.9 C 0 km/h
786 26-12-2010 13:09:01 -2.8 C 2.87 g/m*3 -2.8 C 0 km/h
787 26-12-2010 13:21:01 -2.6 C 2.87 g/m*3 -2.6 C 0 km/h
788 26-12-2010 13:33:02 -2.7 C 2.81 g/m*3 -2.7 C 0 km/h
789 26-12-2010 13:45:02 -2.8 C 2.83 g/m*3 -2.8 C 0 km/h
790 26-12-2010 13:57:02 -2.7 C 2.89 g/m*3 -2.7 C 0 km/h
791 26-12-2010 14:09:02 -2.8 C 2.91 g/m*3 -2.8 C 0 km/h
792 26-12-2010 14:21:01 -2.7 C 2.97 g/m*3 -2.7 C 0 km/h
793 26-12-2010 14:33:02 -2.4 C 3.07 g/m*3 -2.4 C 0 km/h
794 26-12-2010 14:45:02 -2.7 C 3.01 g/m*3 -2.7 C 0 km/h
795 26-12-2010 14:57:02 -2.7 C 3.05 g/m*3 -2.7 C 0 km/h
796 26-12-2010 15:09:02 -2.6 C 3.11 g/m*3 -2.6 C 0 km/h
797 26-12-2010 15:21:02 -2.6 C 3.15 g/m*3 -2.6 C 0 km/h
798 26-12-2010 15:33:02 -2.8 C 3.11 g/m*3 -2.8 C 0 km/h
799 26-12-2010 15:45:02 -2.8 C 3.15 g/m*3 -2.8 C 0 km/h
800 26-12-2010 15:57:02 -2.8 C 3.15 g/m*3 -2.8 C 0 km/h
Sensor: Nr:Datum:Temp:Abs-Feuchte:Windchill:Wind:
Aussen-T/F 801 26-12-2010 16:09:02 -2.8 C 3.15 g/m*3 -2.8 C 0 km/h
802 26-12-2010 16:21:02 -2.8 C 3.15 g/m*3 -2.8 C 0 km/h
803 26-12-2010 16:33:02 -2.9 C 3.16 g/m*3 -2.9 C 0 km/h
804 26-12-2010 16:45:02 -2.9 C 3.16 g/m*3 -2.9 C 0 km/h
805 26-12-2010 16:57:02 -2.9 C 3.16 g/m*3 -2.9 C 0 km/h
806 26-12-2010 17:09:02 -2.8 C 3.19 g/m*3 -2.8 C 0 km/h
807 26-12-2010 17:21:02 -2.7 C 3.17 g/m*3 -2.7 C 0 km/h
808 26-12-2010 17:33:02 -2.8 C 3.15 g/m*3 -2.8 C 0 km/h
809 26-12-2010 17:45:02 -2.9 C 3.16 g/m*3 -2.9 C 0 km/h
810 26-12-2010 17:57:02 -2.9 C 3.16 g/m*3 -2.9 C 0 km/h
811 26-12-2010 18:09:01 -3.2 C 3.1 g/m*3 -3.2 C 0 km/h
812 26-12-2010 18:21:02 -3.1 C 3.16 g/m*3 -3.1 C 0 km/h
813 26-12-2010 18:33:01 -2.8 C 3.23 g/m*3 -2.8 C 0 km/h
814 26-12-2010 18:45:02 -2.7 C 3.21 g/m*3 -2.7 C 0 km/h
815 26-12-2010 18:57:03 -2.7 C 3.17 g/m*3 -2.7 C 0 km/h
816 26-12-2010 19:09:01 -2.8 C 3.15 g/m*3 -2.8 C 0 km/h
817 26-12-2010 19:21:01 -2.7 C 3.17 g/m*3 -2.7 C 0 km/h
818 26-12-2010 19:33:02 -2.7 C 3.17 g/m*3 -2.7 C 0 km/h
819 26-12-2010 19:45:02 -2.7 C 3.21 g/m*3 -2.7 C 0 km/h
820 26-12-2010 19:57:02 -2.7 C 3.21 g/m*3 -2.7 C 0 km/h
821 26-12-2010 20:09:02 -3 C 3.14 g/m*3 -3 C 0 km/h
822 26-12-2010 20:21:02 -3.5 C 3.03 g/m*3 -3.5 C 0 km/h
823 26-12-2010 20:33:02 -2.9 C 3.24 g/m*3 -2.9 C 0 km/h
824 26-12-2010 20:45:02 -2.8 C 3.23 g/m*3 -2.8 C 0 km/h
825 26-12-2010 20:57:02 -3 C 3.14 g/m*3 -3 C 0 km/h
Sensor: Nr:Datum:Temp:Abs-Feuchte:Windchill:Wind:
Aussen-T/F 826 26-12-2010 21:09:02 -3.5 C 3.03 g/m*3 -3.5 C 0 km/h
827 26-12-2010 21:21:02 -3 C 3.18 g/m*3 -3 C 0 km/h
828 26-12-2010 21:33:02 -3 C 3.14 g/m*3 -3 C 0 km/h
829 26-12-2010 21:45:02 -3.5 C 3.03 g/m*3 -3.5 C 0 km/h
830 26-12-2010 21:57:02 -3.5 C 3.03 g/m*3 -3.5 C 0 km/h
831 26-12-2010 22:09:02 -3.2 C 3.14 g/m*3 -3.2 C 0 km/h
832 26-12-2010 22:22:04 -3 C 3.14 g/m*3 -3 C 0 km/h
833 26-12-2010 22:34:04 -3 C 3.1 g/m*3 -3 C 0 km/h
834 26-12-2010 22:46:04 -2.9 C 3.13 g/m*3 -2.9 C 0 km/h
835 26-12-2010 22:58:04 -3.1 C 3.12 g/m*3 -3.1 C 0 km/h
836 26-12-2010 23:10:04 -3.1 C 3.12 g/m*3 -3.1 C 0 km/h
837 26-12-2010 23:22:04 -2.8 C 3.19 g/m*3 -2.8 C 0 km/h
838 26-12-2010 23:34:04 -2.6 C 3.19 g/m*3 -2.6 C 0 km/h
839 26-12-2010 23:46:04 -2.5 C 3.21 g/m*3 -2.5 C 0 km/h
840 26-12-2010 23:58:04 -2.6 C 3.19 g/m*3 -2.6 C 0 km/h

Legende:
   Min
   Max


Maximal/Minimal-Werte vom 20.12.2010 - 26.12.2010

Sensor Min Max Avg
Temp
(Aussen-T/F)
-9.2 °C
25-12-2010  20:32:02
4.3 °C
20-12-2010  00:10:02
-1.97 °C
Abs-Feuchte
(Aussen-T/F)
1.81 g/m*3
26-12-2010  03:21:04
5.13 g/m*3
22-12-2010  11:36:01
3.56 g/m*3
Windchill
(Aussen-T/F)
-9.2 C
25-12-2010  20:32:02
4.3 C
20-12-2010  00:10:02
-1.97 C

Die Daten stammen von einer Davis Vantage Pro 2 Wetter-Station und werden unter Linux mit der Software wview2wettercgi und aufbereitet. Alle Angaben erfolgen ohne Gewähr für ihre Vollständigkeit oder Richtigkeit.
Kontakt: Rainer Krienke krienke@uni-koblenz.de . Meine Webseiten an der Uni Koblenz oder privat.
Version: $Revision: 0.78 $